createdAt,value
2023-02-05T00:02:11.274Z,22.43
2023-02-05T00:04:40.174Z,19.73
2023-02-05T00:07:09.570Z,23.07
2023-02-05T00:09:40.892Z,21.00
2023-02-05T00:12:09.352Z,20.93
2023-02-05T00:14:37.604Z,19.93
2023-02-05T00:17:05.586Z,19.13
2023-02-05T00:19:33.497Z,21.60
2023-02-05T00:22:01.628Z,24.37
2023-02-05T00:24:30.989Z,18.43
2023-02-05T00:26:59.010Z,19.47
2023-02-05T00:29:26.970Z,20.20
2023-02-05T00:31:54.909Z,20.53
2023-02-05T00:34:22.898Z,23.27
2023-02-05T00:36:50.799Z,19.20
2023-02-05T00:39:19.078Z,23.57
2023-02-05T00:41:49.015Z,23.93
2023-02-05T00:44:16.853Z,18.50
2023-02-05T00:46:44.688Z,17.83
2023-02-05T00:49:12.649Z,20.03
2023-02-05T00:51:40.530Z,22.63
2023-02-05T00:54:08.408Z,20.93
2023-02-05T00:56:36.288Z,19.33
2023-02-05T00:59:05.561Z,20.43
2023-02-05T01:01:33.502Z,20.90
2023-02-05T01:04:01.481Z,19.23
2023-02-05T01:06:29.417Z,21.10
2023-02-05T01:08:57.399Z,18.67
2023-02-05T01:11:25.356Z,19.03
2023-02-05T01:13:53.338Z,20.13
2023-02-05T01:16:22.788Z,16.50
2023-02-05T01:18:50.729Z,15.93
2023-02-05T01:21:18.607Z,19.00
2023-02-05T01:23:46.489Z,17.63
2023-02-05T01:26:14.362Z,17.90
2023-02-05T01:28:42.283Z,19.27
2023-02-05T01:31:10.368Z,21.33
2023-02-05T01:33:39.610Z,16.67
2023-02-05T01:36:07.982Z,15.50
2023-02-05T01:38:35.833Z,18.47
2023-02-05T01:41:03.680Z,18.43
2023-02-05T01:43:31.631Z,19.30
2023-02-05T01:46:16.049Z,16.80
2023-02-05T01:48:49.712Z,16.83
2023-02-05T01:51:18.226Z,19.33
2023-02-05T01:53:48.726Z,16.80
2023-02-05T01:56:20.736Z,16.30
2023-02-05T01:58:52.952Z,17.37
2023-02-05T02:01:21.065Z,19.10
2023-02-05T02:03:52.657Z,17.17
2023-02-05T02:06:20.578Z,18.97
2023-02-05T02:08:48.483Z,16.73
2023-02-05T02:11:19.802Z,15.57
2023-02-05T02:13:49.633Z,14.33
2023-02-05T02:16:17.907Z,15.33
2023-02-05T02:18:47.185Z,16.20
2023-02-05T02:21:55.213Z,17.47
2023-02-05T02:25:02.045Z,15.20
2023-02-05T02:27:43.708Z,13.00
2023-02-05T02:30:18.218Z,15.93
2023-02-05T02:32:53.356Z,14.77
2023-02-05T02:35:26.529Z,13.83
2023-02-05T02:38:01.914Z,17.20
2023-02-05T02:40:37.714Z,13.30
2023-02-05T02:43:11.365Z,12.20
2023-02-05T02:45:46.842Z,13.00
2023-02-05T02:48:17.577Z,10.60
2023-02-05T02:50:49.940Z,12.40
2023-02-05T02:53:20.678Z,11.57
2023-02-05T02:55:50.528Z,10.07
2023-02-05T02:58:25.093Z,10.33
2023-02-05T03:00:54.319Z,9.63
2023-02-05T03:03:24.773Z,10.33
2023-02-05T03:05:56.019Z,8.93
2023-02-05T03:08:29.345Z,10.73
2023-02-05T03:11:00.665Z,9.07
2023-02-05T03:13:30.773Z,8.60
2023-02-05T03:15:58.969Z,8.70
2023-02-05T03:18:26.924Z,8.53
2023-02-05T03:20:58.086Z,8.17
2023-02-05T03:23:28.263Z,10.17
2023-02-05T03:25:56.204Z,6.77
2023-02-05T03:28:24.478Z,5.50
2023-02-05T03:31:01.987Z,5.00
2023-02-05T03:33:42.345Z,6.83
2023-02-05T03:36:18.477Z,8.17
2023-02-05T03:39:08.132Z,5.30
2023-02-05T03:41:58.010Z,5.80
2023-02-05T03:44:44.868Z,6.47
2023-02-05T03:47:22.628Z,7.00
2023-02-05T03:49:59.733Z,5.60
2023-02-05T03:52:32.438Z,6.70
2023-02-05T03:55:08.363Z,5.43
2023-02-05T03:57:43.716Z,7.43
2023-02-05T04:00:13.835Z,8.83
2023-02-05T04:02:43.691Z,7.27
2023-02-05T04:05:11.590Z,8.57
2023-02-05T04:07:39.465Z,8.93
2023-02-05T04:10:08.035Z,5.87
2023-02-05T04:12:35.897Z,4.70
2023-02-05T04:15:03.876Z,5.50
2023-02-05T04:17:31.759Z,4.20
2023-02-05T04:20:01.000Z,3.67
2023-02-05T04:22:28.832Z,4.93
2023-02-05T04:24:56.727Z,4.47
2023-02-05T04:27:24.683Z,6.80
2023-02-05T04:29:52.530Z,3.53
2023-02-05T04:32:20.402Z,5.80
2023-02-05T04:34:48.409Z,5.27
2023-02-05T04:37:17.612Z,3.73
2023-02-05T04:39:45.538Z,4.10
2023-02-05T04:42:13.416Z,2.87
2023-02-05T04:44:41.332Z,3.30
2023-02-05T04:47:09.318Z,4.10
2023-02-05T04:49:37.390Z,4.23
2023-02-05T04:52:05.373Z,3.10
2023-02-05T04:54:35.810Z,2.27
2023-02-05T04:57:03.696Z,2.33
2023-02-05T04:59:31.695Z,2.33
2023-02-05T05:01:59.897Z,2.90
2023-02-05T05:04:27.967Z,2.07
2023-02-05T05:06:55.920Z,2.87
2023-02-05T05:09:24.215Z,4.23
2023-02-05T05:11:54.119Z,3.80
2023-02-05T05:14:22.013Z,7.97
2023-02-05T05:16:50.366Z,6.07
2023-02-05T05:19:18.294Z,8.37
2023-02-05T05:21:46.305Z,7.30
2023-02-05T05:24:14.182Z,6.80
2023-02-05T05:26:43.878Z,9.17
2023-02-05T05:29:13.799Z,5.80
2023-02-05T05:31:41.771Z,6.87
2023-02-05T05:34:09.860Z,10.27
2023-02-05T05:36:39.858Z,14.93
2023-02-05T05:39:25.266Z,6.37
2023-02-05T05:42:10.454Z,6.37
2023-02-05T05:44:39.717Z,6.03
2023-02-05T05:47:07.539Z,8.53
2023-02-05T05:49:35.418Z,4.20
2023-02-05T05:52:03.323Z,8.27
2023-02-05T05:54:31.402Z,6.00
2023-02-05T05:56:59.283Z,6.47
2023-02-05T05:59:27.139Z,5.93
2023-02-05T06:01:56.414Z,6.17
2023-02-05T06:04:24.348Z,7.33
2023-02-05T06:06:52.226Z,6.33
2023-02-05T06:09:21.525Z,5.43
2023-02-05T06:11:49.398Z,9.33
2023-02-05T06:14:17.284Z,5.43
2023-02-05T06:16:45.198Z,5.53
2023-02-05T06:19:14.550Z,8.60
2023-02-05T06:21:42.411Z,6.87
2023-02-05T06:24:10.351Z,7.70
2023-02-05T06:26:38.218Z,6.30
2023-02-05T06:29:06.112Z,6.43
2023-02-05T06:31:34.125Z,6.07
2023-02-05T06:34:02.231Z,7.23
2023-02-05T06:36:31.443Z,9.03
2023-02-05T06:38:59.413Z,8.67
2023-02-05T06:41:27.269Z,11.30
2023-02-05T06:43:55.503Z,7.77
2023-02-05T06:46:23.470Z,4.97
2023-02-05T06:48:51.545Z,7.57
2023-02-05T06:51:19.477Z,7.30
2023-02-05T06:53:48.753Z,11.70
2023-02-05T06:56:16.640Z,11.87
2023-02-05T06:58:44.486Z,9.77
2023-02-05T07:01:12.395Z,10.60
2023-02-05T07:03:40.273Z,11.07
2023-02-05T07:06:08.623Z,12.20
2023-02-05T07:08:36.623Z,9.80
2023-02-05T07:11:06.137Z,10.63
2023-02-05T07:13:34.065Z,8.27
2023-02-05T07:16:05.259Z,13.20
2023-02-05T07:18:33.619Z,6.70
2023-02-05T07:21:05.163Z,6.93
2023-02-05T07:23:33.091Z,10.97
2023-02-05T07:26:08.784Z,12.40
2023-02-05T07:28:36.837Z,10.87
2023-02-05T07:31:06.152Z,11.00
2023-02-05T07:33:34.635Z,11.47
2023-02-05T07:36:04.156Z,9.97
2023-02-05T07:38:32.045Z,11.00
2023-02-05T07:40:59.959Z,10.17
2023-02-05T07:43:29.242Z,13.57
2023-02-05T07:45:57.879Z,16.33
2023-02-05T07:48:25.841Z,16.87
2023-02-05T07:50:53.769Z,9.30
2023-02-05T07:53:21.693Z,14.20
2023-02-05T07:55:49.670Z,12.43
2023-02-05T07:58:17.684Z,15.87
2023-02-05T08:00:47.293Z,16.67
2023-02-05T08:03:15.722Z,14.77
2023-02-05T08:05:43.549Z,15.27
2023-02-05T08:08:13.043Z,17.53
2023-02-05T08:10:40.935Z,17.93
2023-02-05T08:13:08.813Z,16.43
2023-02-05T08:15:39.549Z,20.80
2023-02-05T08:18:08.788Z,18.53
2023-02-05T08:20:36.621Z,19.60
2023-02-05T08:23:05.144Z,18.73
2023-02-05T08:25:33.215Z,19.43
2023-02-05T08:28:01.270Z,19.00
2023-02-05T08:30:29.202Z,21.17
2023-02-05T08:32:57.175Z,21.37
2023-02-05T08:35:26.513Z,21.37
2023-02-05T08:37:54.452Z,17.47
2023-02-05T08:40:22.440Z,24.53
2023-02-05T08:42:52.696Z,20.43
2023-02-05T08:45:20.779Z,21.57
2023-02-05T08:47:48.614Z,17.57
2023-02-05T08:50:16.795Z,19.70
2023-02-05T08:52:46.232Z,19.30
2023-02-05T08:55:15.387Z,21.03
2023-02-05T08:57:43.893Z,18.37
2023-02-05T09:00:12.865Z,22.50
2023-02-05T09:02:42.469Z,20.40
2023-02-05T09:05:10.747Z,29.03
2023-02-05T09:07:39.687Z,28.87
2023-02-05T09:10:10.574Z,22.23
2023-02-05T09:12:38.739Z,15.53
2023-02-05T09:15:07.257Z,22.80
2023-02-05T09:17:35.135Z,17.43
2023-02-05T09:20:03.212Z,18.10
2023-02-05T09:22:31.073Z,22.40
2023-02-05T09:24:58.928Z,17.10
2023-02-05T09:27:28.586Z,23.60
2023-02-05T09:29:56.472Z,21.90
2023-02-05T09:32:25.097Z,18.07
2023-02-05T09:34:53.001Z,26.77
2023-02-05T09:37:21.001Z,23.87
2023-02-05T09:42:49.796Z,17.87
2023-02-05T09:45:38.916Z,25.00
2023-02-05T09:48:23.696Z,19.53
2023-02-05T09:50:51.965Z,24.80
2023-02-05T09:53:22.372Z,15.87
2023-02-05T09:55:51.340Z,20.47
2023-02-05T09:58:25.698Z,21.77
2023-02-05T10:00:59.338Z,23.83
2023-02-05T10:03:33.224Z,22.67
2023-02-05T10:06:15.860Z,21.53
2023-02-05T10:08:54.447Z,21.07
2023-02-05T10:11:28.908Z,17.70
2023-02-05T10:14:10.075Z,24.50
2023-02-05T10:16:52.205Z,23.23
2023-02-05T10:19:35.083Z,23.77
2023-02-05T10:22:17.886Z,25.07
2023-02-05T10:25:01.631Z,24.27
2023-02-05T10:27:39.634Z,20.73
2023-02-05T10:30:19.218Z,17.90
2023-02-05T10:32:55.936Z,18.30
2023-02-05T10:35:26.004Z,20.80
2023-02-05T10:37:56.970Z,20.90
2023-02-05T10:40:29.491Z,22.60
2023-02-05T10:43:03.963Z,19.13
2023-02-05T10:45:34.341Z,15.93
2023-02-05T10:48:28.973Z,15.70
2023-02-05T10:51:01.112Z,20.67
2023-02-05T10:53:30.763Z,16.40
2023-02-05T10:56:00.844Z,22.73
2023-02-05T10:58:41.443Z,24.13
2023-02-05T11:01:15.676Z,17.23
2023-02-05T11:03:52.485Z,24.43
2023-02-05T11:06:21.843Z,19.67
2023-02-05T11:08:49.932Z,16.70
2023-02-05T11:11:22.984Z,21.27
2023-02-05T11:13:55.130Z,17.53
2023-02-05T11:16:26.224Z,19.33
2023-02-05T11:18:59.637Z,16.67
2023-02-05T11:21:48.274Z,20.03
2023-02-05T11:24:31.366Z,20.07
2023-02-05T11:27:29.294Z,15.67
2023-02-05T11:29:59.851Z,21.37
2023-02-05T11:32:37.567Z,22.37
2023-02-05T11:35:20.496Z,17.43
2023-02-05T11:37:51.669Z,24.23
2023-02-05T11:40:22.829Z,16.43
2023-02-05T11:43:07.324Z,22.40
2023-02-05T11:45:39.021Z,19.43
2023-02-05T11:48:24.406Z,17.57
2023-02-05T11:50:52.350Z,18.90
2023-02-05T11:53:21.808Z,20.27
2023-02-05T11:55:55.617Z,20.07
2023-02-05T11:58:36.090Z,18.97
2023-02-05T12:01:07.417Z,17.23
2023-02-05T12:03:36.745Z,19.20
2023-02-05T12:06:16.687Z,21.23
2023-02-05T12:08:49.340Z,23.13
2023-02-05T12:11:54.134Z,21.40
2023-02-05T12:14:31.974Z,23.10
2023-02-05T12:17:06.941Z,20.23
2023-02-05T12:19:45.501Z,20.87
2023-02-05T12:22:22.179Z,21.03
2023-02-05T12:25:06.178Z,22.37
2023-02-05T12:27:47.488Z,19.07
2023-02-05T12:30:31.819Z,19.23
2023-02-05T12:33:17.549Z,23.47
2023-02-05T12:36:00.930Z,17.67
2023-02-05T12:38:44.502Z,21.10
2023-02-05T12:41:23.859Z,23.70
2023-02-05T12:43:56.090Z,18.23
2023-02-05T12:46:42.285Z,20.80
2023-02-05T12:49:24.638Z,18.30
2023-02-05T12:52:06.752Z,21.03
2023-02-05T12:54:56.830Z,18.83
2023-02-05T12:57:32.423Z,20.23
2023-02-05T13:00:04.549Z,23.17
2023-02-05T13:02:39.683Z,19.17
2023-02-05T13:05:21.048Z,20.60
2023-02-05T13:07:57.538Z,18.17
2023-02-05T13:10:29.308Z,17.57
2023-02-05T13:13:11.411Z,17.17
2023-02-05T13:15:44.056Z,20.37
2023-02-05T13:18:17.918Z,19.37
2023-02-05T13:21:07.832Z,23.83
2023-02-05T13:23:56.321Z,20.37
2023-02-05T13:26:47.706Z,24.07
2023-02-05T13:29:19.511Z,24.93
2023-02-05T13:31:50.789Z,20.37
2023-02-05T13:34:19.652Z,17.07
2023-02-05T13:37:20.473Z,20.63
2023-02-05T13:40:24.051Z,19.10
2023-02-05T13:43:14.489Z,20.67
2023-02-05T13:46:09.840Z,17.50
2023-02-05T13:49:11.413Z,19.43
2023-02-05T13:51:49.910Z,21.57
2023-02-05T13:54:42.322Z,19.30
2023-02-05T13:57:34.101Z,25.03
2023-02-05T14:00:06.287Z,19.93
2023-02-05T14:02:43.286Z,18.87
2023-02-05T14:05:13.564Z,27.87
2023-02-05T14:07:47.218Z,23.43
2023-02-05T14:10:26.532Z,24.87
2023-02-05T14:12:55.404Z,18.33
2023-02-05T14:15:37.969Z,24.30
2023-02-05T14:18:06.455Z,24.73
2023-02-05T14:20:37.957Z,22.27
2023-02-05T14:23:14.777Z,23.10
2023-02-05T14:26:11.529Z,23.03
2023-02-05T14:28:51.463Z,29.00
2023-02-05T14:31:58.367Z,22.63
2023-02-05T14:35:00.605Z,26.43
2023-02-05T14:37:36.140Z,19.37
2023-02-05T14:40:35.671Z,20.67
2023-02-05T14:43:15.836Z,21.67
2023-02-05T14:45:46.142Z,22.10
2023-02-05T14:48:23.152Z,24.27
2023-02-05T14:51:05.488Z,21.43
2023-02-05T14:53:34.983Z,25.53
2023-02-05T14:56:03.559Z,23.40
2023-02-05T14:58:35.673Z,24.30
2023-02-05T15:01:40.688Z,27.07
2023-02-05T15:04:24.554Z,31.13
2023-02-05T15:06:54.726Z,31.03
2023-02-05T15:09:30.457Z,22.87
2023-02-05T15:12:16.873Z,28.30
2023-02-05T15:14:52.782Z,22.80
2023-02-05T15:17:51.553Z,23.00
2023-02-05T15:20:26.332Z,21.37
2023-02-05T15:23:01.298Z,23.37
2023-02-05T15:25:39.452Z,23.17
2023-02-05T15:28:22.859Z,23.03
2023-02-05T15:31:09.184Z,21.20
2023-02-05T15:33:46.464Z,26.43
2023-02-05T15:36:21.981Z,26.27
2023-02-05T15:38:58.009Z,19.00
2023-02-05T15:41:26.539Z,26.53
2023-02-05T15:44:02.440Z,29.93
2023-02-05T15:46:32.756Z,26.93
2023-02-05T15:49:01.617Z,36.43
2023-02-05T15:51:32.811Z,32.37
2023-02-05T15:54:04.881Z,21.23
2023-02-05T15:56:37.154Z,24.90
2023-02-05T15:59:07.550Z,25.23
2023-02-05T16:01:37.167Z,29.40
2023-02-05T16:04:17.892Z,31.10
2023-02-05T16:06:45.881Z,24.30
2023-02-05T16:09:19.049Z,20.93
2023-02-05T16:11:48.104Z,23.13
2023-02-05T16:14:17.702Z,21.20
2023-02-05T16:16:58.211Z,23.17
2023-02-05T16:19:30.390Z,25.97
2023-02-05T16:22:02.372Z,23.90
2023-02-05T16:24:34.489Z,20.97
2023-02-05T16:27:07.042Z,26.80
2023-02-05T16:29:47.609Z,26.83
2023-02-05T16:32:22.897Z,21.13
2023-02-05T16:34:51.332Z,19.50
2023-02-05T16:37:20.400Z,22.13
2023-02-05T16:39:54.462Z,23.33
2023-02-05T16:42:34.149Z,20.43
2023-02-05T16:45:25.267Z,20.63
2023-02-05T16:48:19.652Z,25.30
2023-02-05T16:50:47.648Z,24.07
2023-02-05T16:53:21.173Z,23.27
2023-02-05T16:55:53.549Z,24.80
2023-02-05T16:58:24.547Z,24.70
2023-02-05T17:00:55.279Z,21.57
2023-02-05T17:03:23.880Z,30.07
2023-02-05T17:05:57.934Z,23.90
2023-02-05T17:08:30.753Z,22.40
2023-02-05T17:11:02.151Z,25.90
2023-02-05T17:13:37.724Z,24.07
2023-02-05T17:16:35.603Z,24.07
2023-02-05T17:19:05.236Z,24.03
2023-02-05T17:21:34.204Z,27.17
2023-02-05T17:24:05.936Z,26.80
2023-02-05T17:26:38.859Z,27.87
2023-02-05T17:29:09.108Z,24.30
2023-02-05T17:31:39.480Z,16.73
2023-02-05T17:34:07.497Z,18.70
2023-02-05T17:36:35.424Z,24.17
2023-02-05T17:39:03.628Z,26.80
2023-02-05T17:41:54.860Z,27.50
2023-02-05T17:44:22.890Z,28.10
2023-02-05T17:46:50.993Z,19.77
2023-02-05T17:49:18.912Z,22.20
2023-02-05T17:51:46.915Z,23.33
2023-02-05T17:54:16.668Z,22.30
2023-02-05T17:56:48.218Z,27.30
2023-02-05T17:59:18.667Z,25.47
2023-02-05T18:01:46.913Z,27.23
2023-02-05T18:04:15.377Z,28.00
2023-02-05T18:06:44.040Z,23.27
2023-02-05T18:09:12.427Z,18.63
2023-02-05T18:11:40.600Z,30.03
2023-02-05T18:14:10.374Z,19.90
2023-02-05T18:16:38.315Z,29.37
2023-02-05T18:19:06.243Z,28.30
2023-02-05T18:21:34.784Z,32.03
2023-02-05T18:24:02.843Z,22.80
2023-02-05T18:26:31.010Z,27.77
2023-02-05T18:28:58.886Z,20.87
2023-02-05T18:31:28.164Z,19.80
2023-02-05T18:36:42.242Z,25.20
2023-02-05T18:41:55.550Z,24.40
2023-02-05T18:44:23.456Z,27.47
2023-02-05T18:46:53.008Z,25.77
2023-02-05T18:49:21.029Z,21.03
2023-02-05T18:51:48.937Z,20.67
2023-02-05T18:54:16.808Z,22.70
2023-02-05T18:56:44.702Z,22.47
2023-02-05T18:59:15.612Z,21.97
2023-02-05T19:01:43.696Z,25.83
2023-02-05T19:04:15.537Z,26.03
2023-02-05T19:06:44.113Z,22.30
2023-02-05T19:09:12.243Z,21.57
2023-02-05T19:11:41.432Z,20.77
2023-02-05T19:14:12.472Z,30.73
2023-02-05T19:16:41.658Z,28.60
2023-02-05T19:19:09.729Z,21.03
2023-02-05T19:21:39.055Z,19.23
2023-02-05T19:24:09.654Z,21.40
2023-02-05T19:26:39.461Z,25.37
2023-02-05T19:29:09.477Z,19.50
2023-02-05T19:31:38.687Z,30.03
2023-02-05T19:34:07.270Z,24.87
2023-02-05T19:36:35.518Z,24.90
2023-02-05T19:39:07.100Z,25.50
2023-02-05T19:41:36.945Z,18.90
2023-02-05T19:44:07.152Z,18.07
2023-02-05T19:46:37.898Z,21.70
2023-02-05T19:49:07.792Z,27.57
2023-02-05T19:51:35.725Z,26.17
2023-02-05T19:54:06.662Z,17.70
2023-02-05T19:56:37.794Z,23.60
2023-02-05T19:59:06.896Z,15.63
2023-02-05T20:01:36.311Z,25.13
2023-02-05T20:04:08.410Z,29.47
2023-02-05T20:06:37.564Z,20.93
2023-02-05T20:09:10.644Z,37.00
2023-02-05T20:11:38.945Z,25.93
2023-02-05T20:14:07.289Z,17.93
2023-02-05T20:16:36.004Z,16.83
2023-02-05T20:19:05.797Z,21.97
2023-02-05T20:21:33.927Z,20.20
2023-02-05T20:24:01.821Z,20.27
2023-02-05T20:26:31.395Z,14.33
2023-02-05T20:29:16.704Z,16.80
2023-02-05T20:31:47.301Z,22.73
2023-02-05T20:34:19.392Z,23.43
2023-02-05T20:36:48.705Z,21.63
2023-02-05T20:39:18.183Z,17.13
2023-02-05T20:41:49.327Z,23.30
2023-02-05T20:44:18.561Z,20.07
2023-02-05T20:46:46.717Z,20.83
2023-02-05T20:49:14.867Z,17.87
2023-02-05T20:51:43.734Z,19.73
2023-02-05T20:54:12.005Z,15.93
2023-02-05T20:56:40.307Z,28.90
2023-02-05T20:59:10.358Z,24.30
2023-02-05T21:01:39.690Z,23.10
2023-02-05T21:04:09.341Z,21.83
2023-02-05T21:06:39.333Z,15.90
2023-02-05T21:09:08.795Z,20.97
2023-02-05T21:11:37.348Z,19.57
2023-02-05T21:14:05.931Z,20.57
2023-02-05T21:16:36.337Z,20.90
2023-02-05T21:19:05.714Z,15.63
2023-02-05T21:21:35.853Z,20.07
2023-02-05T21:24:05.324Z,15.80
2023-02-05T21:26:35.835Z,17.77
2023-02-05T21:29:05.884Z,22.83
2023-02-05T21:31:39.179Z,19.93
2023-02-05T21:34:08.970Z,15.63
2023-02-05T21:36:37.234Z,13.47
2023-02-05T21:39:05.723Z,15.10
2023-02-05T21:41:33.768Z,17.70
2023-02-05T21:44:02.147Z,18.47
2023-02-05T21:46:31.801Z,21.50
2023-02-05T21:49:02.248Z,17.97
2023-02-05T21:51:33.832Z,17.73
2023-02-05T21:54:03.700Z,16.20
2023-02-05T21:56:33.582Z,19.70
2023-02-05T21:59:01.884Z,15.23
2023-02-05T22:01:31.778Z,17.07
2023-02-05T22:04:03.742Z,15.97
2023-02-05T22:06:34.008Z,19.67
2023-02-05T22:09:03.876Z,11.83
2023-02-05T22:11:31.996Z,13.63
2023-02-05T22:14:00.189Z,14.37
2023-02-05T22:16:30.392Z,13.03
2023-02-05T22:19:00.775Z,14.30
2023-02-05T22:21:30.727Z,12.77
2023-02-05T22:24:00.257Z,19.10
2023-02-05T22:26:30.065Z,14.07
2023-02-05T22:28:59.315Z,15.77
2023-02-05T22:31:28.672Z,16.63
2023-02-05T22:33:57.258Z,15.10
2023-02-05T22:36:29.301Z,13.37
2023-02-05T22:38:57.480Z,17.27
2023-02-05T22:41:26.966Z,16.07
2023-02-05T22:43:56.177Z,14.80
2023-02-05T22:46:25.889Z,14.93
2023-02-05T22:48:55.250Z,20.77
2023-02-05T22:51:24.920Z,10.70
2023-02-05T22:53:55.631Z,19.03
2023-02-05T22:56:23.688Z,14.97
2023-02-05T22:58:52.278Z,11.37
2023-02-05T23:01:22.434Z,14.07
2023-02-05T23:03:51.924Z,12.47
2023-02-05T23:06:21.919Z,11.33
2023-02-05T23:08:55.754Z,14.70
2023-02-05T23:11:24.359Z,12.63
2023-02-05T23:13:52.588Z,20.13
2023-02-05T23:16:22.764Z,14.77
2023-02-05T23:18:51.853Z,15.00
2023-02-05T23:21:21.511Z,14.60
2023-02-05T23:23:50.593Z,15.87
2023-02-05T23:26:22.286Z,18.40
2023-02-05T23:28:51.112Z,17.83
2023-02-05T23:31:19.949Z,11.57
2023-02-05T23:33:48.114Z,15.27
2023-02-05T23:36:16.065Z,14.27
2023-02-05T23:38:44.010Z,18.50
2023-02-05T23:41:12.162Z,12.53
2023-02-05T23:43:41.630Z,8.97
2023-02-05T23:46:10.101Z,16.00
2023-02-05T23:48:37.973Z,15.27
2023-02-05T23:51:05.852Z,12.30
2023-02-05T23:53:33.765Z,14.70
2023-02-05T23:56:03.086Z,9.57
2023-02-05T23:58:31.026Z,13.43
